Time;durP1;ratioP1;P1;durP2;ratioP2;P2;SDS_P1;SDS_P2;PMS_P1;PMS_P2;Temp;Humidity;BMP_temperature;BMP_pressure;BME280_temperature;BME280_humidity;BME280_pressure;Samples;Min_cycle;Max_cycle;Signal;HPM_P1;HPM_P2
2022/01/08 00:01:38;;;;;;;26.60;13.43;;;;;;;-1.01;100.00;101040.56;5064431;28;20033;-91
2022/01/08 00:04:04;;;;;;;26.98;13.40;;;;;;;-0.95;100.00;101044.94;5056163;28;20024;-91
2022/01/08 00:06:29;;;;;;;31.02;14.95;;;;;;;-0.93;100.00;101056.91;5059236;28;20039;-91
2022/01/08 00:08:55;;;;;;;28.65;14.88;;;;;;;-0.97;100.00;101047.47;5060909;28;20035;-92
2022/01/08 00:11:24;;;;;;;31.60;13.57;;;;;;;-0.93;100.00;101048.41;5062855;28;20079;-91
2022/01/08 00:13:50;;;;;;;26.38;13.45;;;;;;;-0.90;100.00;101056.13;5065199;28;20060;-92
2022/01/08 00:16:15;;;;;;;31.50;14.68;;;;;;;-0.89;100.00;101056.16;5068444;28;20071;-92
2022/01/08 00:18:40;;;;;;;29.60;14.13;;;;;;;-0.90;100.00;101054.44;5067813;28;20052;-91
2022/01/08 00:21:05;;;;;;;27.63;14.68;;;;;;;-0.89;100.00;101053.59;5068388;28;20032;-91
2022/01/08 00:23:31;;;;;;;28.13;13.75;;;;;;;-0.91;100.00;101051.88;5066363;28;20060;-92
2022/01/08 00:25:58;;;;;;;34.17;14.95;;;;;;;-0.91;100.00;101054.41;5068706;28;20032;-92
2022/01/08 00:28:24;;;;;;;28.65;13.50;;;;;;;-0.87;100.00;101058.75;5065604;28;20070;-92
2022/01/08 00:30:50;;;;;;;27.80;13.07;;;;;;;-0.84;100.00;101061.38;5066559;28;20036;-92
2022/01/08 00:33:15;;;;;;;29.60;13.77;;;;;;;-0.83;100.00;101065.66;5053240;28;20032;-92
2022/01/08 00:35:41;;;;;;;29.55;13.23;;;;;;;-0.80;100.00;101063.16;5066011;28;20395;-90
2022/01/08 00:38:06;;;;;;;29.73;14.25;;;;;;;-0.78;100.00;101064.06;5061020;28;20399;-92
2022/01/08 00:40:31;;;;;;;32.17;14.05;;;;;;;-0.80;100.00;101064.03;5066687;28;20032;-90
2022/01/08 00:42:57;;;;;;;30.88;13.77;;;;;;;-0.76;100.00;101076.84;5086925;28;20021;-91
2022/01/08 00:45:22;;;;;;;27.00;13.00;;;;;;;-0.77;100.00;101063.25;5086131;28;20066;-91
2022/01/08 00:47:48;;;;;;;27.70;12.30;;;;;;;-0.76;100.00;101072.63;5068297;28;20497;-92
2022/01/08 00:50:13;;;;;;;26.80;12.70;;;;;;;-0.74;100.00;101085.34;5068351;28;20033;-92
2022/01/08 00:52:40;;;;;;;27.08;13.18;;;;;;;-0.80;100.00;101081.84;5055763;28;20399;-91
2022/01/08 00:55:06;;;;;;;26.60;13.00;;;;;;;-0.81;100.00;101084.34;5053016;28;20024;-92
2022/01/08 00:57:32;;;;;;;26.90;13.27;;;;;;;-0.82;100.00;101092.81;5070512;28;20032;-91
2022/01/08 00:59:57;;;;;;;28.63;13.95;;;;;;;-0.78;100.00;101099.69;5070737;28;20031;-92
2022/01/08 01:02:22;;;;;;;29.20;12.77;;;;;;;-0.78;100.00;101094.59;5071725;28;20611;-92
2022/01/08 01:04:48;;;;;;;25.35;12.55;;;;;;;-0.80;100.00;101088.59;5070883;28;20028;-92
2022/01/08 01:07:13;;;;;;;30.73;13.00;;;;;;;-0.75;100.00;101093.84;5068145;28;20122;-92
2022/01/08 01:09:39;;;;;;;28.80;12.70;;;;;;;-0.70;100.00;101095.69;5065087;28;20433;-91
2022/01/08 01:12:04;;;;;;;29.77;12.38;;;;;;;-0.64;100.00;101085.66;5070336;28;20436;-91
2022/01/08 01:14:30;;;;;;;26.92;12.13;;;;;;;-0.54;100.00;101096.91;5066539;28;20124;-91
2022/01/08 01:16:56;;;;;;;28.88;12.65;;;;;;;-0.47;100.00;101091.16;5062720;28;20151;-91
2022/01/08 01:19:21;;;;;;;27.52;13.27;;;;;;;-0.48;100.00;101085.19;5069432;28;20020;-91
2022/01/08 01:21:47;;;;;;;28.70;12.48;;;;;;;-0.46;100.00;101083.56;5060727;28;20017;-91
2022/01/08 01:24:18;;;;;;;28.27;12.43;;;;;;;-0.46;100.00;101081.00;5069399;28;20032;-91
2022/01/08 01:27:07;;;;;;;30.15;12.77;;;;;;;-0.48;100.00;101085.19;5056303;28;20040;-90
2022/01/08 01:29:47;;;;;;;23.42;12.15;;;;;;;-0.55;100.00;101082.47;5051720;28;20037;-91
2022/01/08 01:48:22;;;;;;;26.30;11.50;;;;;;;-0.75;100.00;101099.75;5064561;28;20098;-91
2022/01/08 01:50:47;;;;;;;26.38;12.07;;;;;;;-0.81;100.00;101095.38;5070806;28;20036;-90
2022/01/08 01:53:13;;;;;;;27.13;11.93;;;;;;;-0.79;100.00;101100.50;5070492;28;20399;-91
2022/01/08 01:55:41;;;;;;;25.05;12.18;;;;;;;-0.81;100.00;101110.66;5061797;28;20162;-91
2022/01/08 01:58:06;;;;;;;29.83;12.25;;;;;;;-0.84;100.00;101102.09;5071174;28;20094;-90
2022/01/08 02:00:33;;;;;;;30.65;11.98;;;;;;;-0.80;100.00;101101.34;5071159;28;20391;-91
2022/01/08 02:02:59;;;;;;;27.58;12.23;;;;;;;-0.86;100.00;101083.38;5068031;28;20028;-91
2022/01/08 02:05:25;;;;;;;25.95;11.38;;;;;;;-0.84;100.00;101090.22;5070279;28;20063;-91
2022/01/08 02:07:51;;;;;;;28.42;12.15;;;;;;;-0.85;100.00;101093.59;5068737;28;20489;-91
2022/01/08 02:10:16;;;;;;;22.90;11.52;;;;;;;-0.87;100.00;101094.34;5068436;28;20036;-91
2022/01/08 02:12:41;;;;;;;24.63;11.25;;;;;;;-0.93;100.00;101095.06;5058189;28;20079;-91
2022/01/08 02:15:07;;;;;;;23.48;11.60;;;;;;;-1.01;100.00;101086.34;5068181;28;20036;-91
2022/01/08 02:17:33;;;;;;;22.92;11.43;;;;;;;-1.05;100.00;101091.34;5069416;28;20035;-91
2022/01/08 02:19:58;;;;;;;27.00;11.90;;;;;;;-1.08;100.00;101093.78;5069217;28;20028;-91
2022/01/08 02:22:23;;;;;;;25.40;11.60;;;;;;;-1.10;100.00;101091.22;5070241;28;20512;-91
2022/01/08 02:24:48;;;;;;;24.00;11.60;;;;;;;-1.14;100.00;101094.47;5068581;28;20328;-91
2022/01/08 02:27:15;;;;;;;28.45;12.95;;;;;;;-1.17;100.00;101091.00;5070101;28;20058;-91
2022/01/08 02:29:41;;;;;;;30.73;13.50;;;;;;;-1.23;100.00;101101.88;5070241;28;20036;-91
2022/01/08 02:32:11;;;;;;;25.50;12.10;;;;;;;-1.20;100.00;101096.84;5070054;28;20431;-91
2022/01/08 02:34:39;;;;;;;27.48;12.70;;;;;;;-1.21;100.00;101090.03;5058781;28;20081;-91
2022/01/08 02:37:06;;;;;;;26.70;12.80;;;;;;;-1.23;100.00;101099.34;5068479;28;20344;-91
2022/01/08 02:39:38;;;;;;;27.85;13.20;;;;;;;-1.22;100.00;101098.50;5058430;28;20044;-89
2022/01/08 02:42:05;;;;;;;34.17;14.90;;;;;;;-1.22;100.00;101101.03;5060950;28;20036;-91
2022/01/08 02:44:30;;;;;;;33.72;15.13;;;;;;;-1.24;100.00;101101.00;5063205;28;20031;-91
2022/01/08 02:46:55;;;;;;;32.75;14.85;;;;;;;-1.22;100.00;101101.03;5067824;28;20028;-91
2022/01/08 02:49:23;;;;;;;34.38;16.38;;;;;;;-1.26;100.00;101099.22;5066586;28;20024;-91
2022/01/08 02:51:48;;;;;;;32.33;15.35;;;;;;;-1.22;100.00;101106.13;5069909;28;20036;-91
2022/01/08 02:54:14;;;;;;;35.80;16.30;;;;;;;-1.18;100.00;101107.94;5069558;28;20084;-90
2022/01/08 02:56:41;;;;;;;41.45;16.25;;;;;;;-1.21;100.00;101105.31;5069539;28;20102;-91
2022/01/08 02:59:07;;;;;;;37.00;16.70;;;;;;;-1.20;100.00;101112.97;5068347;28;20052;-91
2022/01/08 03:01:33;;;;;;;37.72;16.58;;;;;;;-1.14;100.00;101117.38;5084972;28;20060;-91
2022/01/08 03:03:58;;;;;;;36.50;16.83;;;;;;;-1.11;100.00;101112.38;5086858;28;20024;-91
2022/01/08 03:06:24;;;;;;;36.50;16.65;;;;;;;-1.11;100.00;101103.88;5068046;28;20036;-91
2022/01/08 03:08:49;;;;;;;38.88;17.73;;;;;;;-1.12;100.00;101100.47;5064555;28;20109;-91
2022/01/08 03:11:15;;;;;;;37.47;17.58;;;;;;;-1.12;100.00;101105.56;5060968;28;20039;-91
2022/01/08 03:13:40;;;;;;;39.75;16.50;;;;;;;-1.10;100.00;101109.03;5069788;28;20539;-91
2022/01/08 03:16:05;;;;;;;44.20;17.90;;;;;;;-1.11;100.00;101107.28;5067279;28;20024;-91
2022/01/08 03:18:32;;;;;;;36.25;17.85;;;;;;;-1.12;100.00;101099.63;5061809;28;20025;-91
2022/01/08 03:21:04;;;;;;;40.58;17.25;;;;;;;-1.14;100.00;101098.69;5056178;28;20100;-91
2022/01/08 03:23:39;;;;;;;40.90;17.48;;;;;;;-1.14;100.00;101101.25;5071767;28;20036;-89
2022/01/08 03:26:05;;;;;;;35.58;16.10;;;;;;;-1.20;100.00;101100.25;5067079;28;20212;-91
2022/01/08 03:28:30;;;;;;;38.15;16.90;;;;;;;-1.16;100.00;101100.38;5053453;28;20035;-91
2022/01/08 03:30:55;;;;;;;42.35;16.92;;;;;;;-1.15;100.00;101102.06;5071362;28;20020;-91
2022/01/08 03:33:21;;;;;;;43.67;17.52;;;;;;;-1.15;100.00;101105.47;5061967;28;20380;-91
2022/01/08 03:35:46;;;;;;;37.10;17.17;;;;;;;-1.15;100.00;101108.00;5063042;28;20035;-91
2022/01/08 03:38:11;;;;;;;36.33;16.38;;;;;;;-1.13;100.00;101110.59;5060531;28;20021;-92
2022/01/08 03:40:37;;;;;;;34.70;16.55;;;;;;;-1.13;100.00;101113.16;5068806;28;20113;-91
2022/01/08 03:43:02;;;;;;;38.00;16.27;;;;;;;-1.14;100.00;101108.88;5068960;28;20154;-92
2022/01/08 03:45:27;;;;;;;33.92;16.15;;;;;;;-1.16;100.00;101108.81;5067816;28;20028;-91
2022/01/08 03:48:06;;;;;;;41.42;16.42;;;;;;;-1.15;100.00;101118.19;5069363;28;20348;-92
2022/01/08 03:50:31;;;;;;;37.33;16.02;;;;;;;-1.16;100.00;101120.72;5065536;28;20029;-91
2022/01/08 03:52:56;;;;;;;35.75;15.60;;;;;;;-1.16;100.00;101118.16;5062025;28;20035;-91
2022/01/08 03:55:22;;;;;;;34.75;15.73;;;;;;;-1.14;100.00;101121.59;5069018;28;20391;-92
2022/01/08 03:57:47;;;;;;;38.88;16.45;;;;;;;-1.18;100.00;101119.78;5062134;28;20040;-91
2022/01/08 04:00:13;;;;;;;36.10;15.65;;;;;;;-1.18;100.00;101109.63;5064233;28;20021;-91
2022/01/08 04:02:39;;;;;;;35.95;15.45;;;;;;;-1.17;100.00;101109.69;5062603;28;20093;-91
2022/01/08 04:05:05;;;;;;;38.15;15.75;;;;;;;-1.21;100.00;101118.00;5057390;28;20186;-91
2022/01/08 04:07:30;;;;;;;32.30;15.05;;;;;;;-1.25;100.00;101124.72;5067463;28;20032;-91
2022/01/08 04:09:55;;;;;;;35.80;15.73;;;;;;;-1.28;100.00;101119.53;5066251;28;20497;-91
2022/01/08 04:12:31;;;;;;;37.88;15.82;;;;;;;-1.31;100.00;101131.31;5066978;28;20025;-91
2022/01/08 04:15:06;;;;;;;32.70;14.18;;;;;;;-1.31;100.00;101128.75;5068125;28;20024;-91
2022/01/08 04:17:31;;;;;;;;;;;;;;;-1.29;100.00;101130.50;5054702;28;20020;-91
2022/01/08 04:19:56;;;;;;;30.80;14.13;;;;;;;-1.31;100.00;101132.16;5068754;28;19919;-90
2022/01/08 04:22:23;;;;;;;33.83;14.73;;;;;;;-1.30;100.00;101143.22;5053173;28;20063;-91
2022/01/08 04:24:49;;;;;;;32.00;14.48;;;;;;;-1.37;100.00;101142.16;5061460;28;20513;-92
2022/01/08 04:27:15;;;;;;;34.35;14.80;;;;;;;-1.38;100.00;101142.13;5057793;28;20032;-91
2022/01/08 04:29:40;;;;;;;34.25;14.82;;;;;;;-1.36;100.00;101143.88;5052962;28;20077;-92
2022/01/08 04:32:06;;;;;;;35.22;15.57;;;;;;;-1.37;100.00;101136.22;5070289;28;20032;-91
2022/01/08 04:34:31;;;;;;;36.55;15.30;;;;;;;-1.35;100.00;101142.19;5065219;28;20028;-91
2022/01/08 04:36:57;;;;;;;33.45;15.40;;;;;;;-1.36;100.00;101143.88;5068669;28;20069;-92
2022/01/08 04:39:22;;;;;;;37.58;16.60;;;;;;;-1.36;100.00;101148.09;5067662;28;20072;-90
2022/01/08 04:41:47;;;;;;;36.55;14.93;;;;;;;-1.33;100.00;101151.59;5071856;28;20395;-91
2022/01/08 04:44:12;;;;;;;36.38;14.88;;;;;;;-1.32;100.00;101149.91;5070069;28;20376;-91
2022/01/08 04:46:40;;;;;;;35.65;16.50;;;;;;;-1.29;100.00;101161.03;5071059;28;20042;-92
2022/01/08 04:49:06;;;;;;;32.30;15.45;;;;;;;-1.27;100.00;101149.22;5087810;28;20017;-92
2022/01/08 04:51:31;;;;;;;40.38;15.88;;;;;;;-1.24;100.00;101156.09;5071044;28;20040;-91
2022/01/08 04:53:56;;;;;;;34.10;15.57;;;;;;;-1.26;100.00;101150.94;5065494;28;20025;-91
2022/01/08 04:56:22;;;;;;;36.40;14.88;;;;;;;-1.30;100.00;101145.75;5065904;28;20131;-91
2022/01/08 04:58:48;;;;;;;33.28;15.70;;;;;;;-1.29;100.00;101152.53;5062429;28;20074;-91
2022/01/08 05:01:14;;;;;;;34.35;15.45;;;;;;;-1.30;100.00;101156.78;5068185;28;20399;-92
2022/01/08 05:03:40;;;;;;;34.90;15.50;;;;;;;-1.33;100.00;101153.28;5062761;28;20107;-90
2022/01/08 05:06:05;;;;;;;32.72;15.57;;;;;;;-1.31;100.00;101162.69;5070623;28;20082;-92
2022/01/08 05:08:30;;;;;;;40.40;16.15;;;;;;;-1.30;100.00;101166.09;5071506;28;20032;-92
2022/01/08 05:10:56;;;;;;;32.33;16.20;;;;;;;-1.33;100.00;101164.31;5069139;28;20259;-92
2022/01/08 05:13:21;;;;;;;33.67;16.25;;;;;;;-1.34;100.00;101164.25;5063407;28;20420;-91
2022/01/08 05:15:46;;;;;;;39.30;16.67;;;;;;;-1.31;100.00;101167.75;5059407;28;20086;-91
2022/01/08 05:18:12;;;;;;;35.60;16.80;;;;;;;-1.29;100.00;101171.19;5084047;28;20151;-90
2022/01/08 05:20:44;;;;;;;40.10;19.33;;;;;;;-1.28;100.00;101160.22;5076786;28;20068;-91
2022/01/08 05:23:09;;;;;;;36.15;16.88;;;;;;;-1.25;100.00;101173.03;5072289;28;20032;-92
2022/01/08 05:25:34;;;;;;;43.78;18.38;;;;;;;-1.29;100.00;101168.66;5066750;28;20033;-92
2022/01/08 05:28:00;;;;;;;40.90;18.00;;;;;;;-1.27;100.00;101166.16;5067295;28;20405;-92
2022/01/08 05:30:26;;;;;;;38.90;18.75;;;;;;;-1.27;100.00;101161.94;5070186;28;20025;-92
2022/01/08 05:32:52;;;;;;;37.92;18.10;;;;;;;-1.23;100.00;101165.44;5070091;28;20496;-92
2022/01/08 05:35:18;;;;;;;35.42;17.73;;;;;;;-1.20;100.00;101162.97;5051837;28;20078;-92
2022/01/08 05:37:44;;;;;;;37.30;17.70;;;;;;;-1.25;100.00;101160.31;5061552;28;20100;-92
2022/01/08 05:40:10;;;;;;;34.58;17.83;;;;;;;-1.25;100.00;101169.63;5070324;28;20041;-92
2022/01/08 05:42:36;;;;;;;38.20;16.95;;;;;;;-1.28;100.00;101172.06;5064513;28;20028;-91
2022/01/08 05:45:03;;;;;;;34.20;17.13;;;;;;;-1.29;100.00;101165.25;5064219;28;20070;-92
2022/01/08 05:47:31;;;;;;;31.27;16.33;;;;;;;-1.28;100.00;101162.75;5066240;28;20039;-93
2022/01/08 05:49:56;;;;;;;39.35;17.30;;;;;;;-1.27;100.00;101169.56;5071012;28;20451;-92
2022/01/08 05:52:21;;;;;;;34.95;17.48;;;;;;;-1.29;100.00;101163.56;5070280;28;20032;-92
2022/01/08 05:54:47;;;;;;;38.17;17.15;;;;;;;-1.21;100.00;101172.28;5056475;28;20043;-92
2022/01/08 05:57:12;;;;;;;32.40;16.73;;;;;;;-1.19;100.00;101167.25;5071028;28;20028;-92
2022/01/08 05:59:38;;;;;;;34.72;15.38;;;;;;;-1.12;100.00;101184.41;5067051;28;20483;-92
2022/01/08 06:02:03;;;;;;;37.70;16.45;;;;;;;-1.10;100.00;101181.91;5054760;28;20028;-92
2022/01/08 06:04:29;;;;;;;38.88;17.50;;;;;;;-1.13;100.00;101180.13;5050846;28;20032;-92
2022/01/08 06:06:54;;;;;;;33.05;15.60;;;;;;;-1.14;100.00;101186.03;5051642;28;20036;-92
2022/01/08 06:09:19;;;;;;;30.75;16.30;;;;;;;-1.13;100.00;101190.31;5055769;28;20099;-93
2022/01/08 06:11:44;;;;;;;35.65;16.63;;;;;;;-1.12;100.00;101193.72;5067496;28;20114;-93
2022/01/08 06:14:10;;;;;;;31.77;16.00;;;;;;;-1.11;100.00;101203.06;5065436;28;20036;-92
2022/01/08 06:16:37;;;;;;;35.72;16.55;;;;;;;-1.18;100.00;101202.03;5062400;28;20100;-92
2022/01/08 06:19:07;;;;;;;30.92;14.55;;;;;;;-1.16;100.00;101210.56;5067578;28;20036;-93
2022/01/08 06:21:32;;;;;;;35.45;15.25;;;;;;;-1.17;100.00;101206.31;5062263;28;20029;-91
2022/01/08 06:23:58;;;;;;;30.65;15.15;;;;;;;-1.19;100.00;101213.03;5052467;28;20017;-93
2022/01/08 06:26:23;;;;;;;35.33;15.82;;;;;;;-1.18;100.00;101209.66;5068451;28;20085;-92
2022/01/08 06:28:51;;;;;;;32.60;15.95;;;;;;;-1.19;100.00;101205.41;5061663;28;20024;-90
2022/01/08 06:31:17;;;;;;;32.75;15.93;;;;;;;-1.10;100.00;101209.91;5062746;28;20082;-91
2022/01/08 06:33:42;;;;;;;33.30;15.50;;;;;;;-1.05;100.00;101208.34;5053490;28;20442;-91
2022/01/08 06:36:07;;;;;;;38.35;16.33;;;;;;;-1.04;100.00;101199.91;5059617;28;20032;-92
2022/01/08 06:38:33;;;;;;;33.60;16.08;;;;;;;-1.02;100.00;101193.16;5069526;28;20070;-92
2022/01/08 06:40:58;;;;;;;31.08;16.60;;;;;;;-1.02;100.00;101188.94;5056664;28;20035;-92
2022/01/08 06:43:23;;;;;;;33.17;15.77;;;;;;;-0.96;100.00;101190.81;5069466;28;20028;-92
2022/01/08 06:45:49;;;;;;;36.28;16.05;;;;;;;-0.97;100.00;101182.31;5064120;28;20029;-91
2022/01/08 06:48:14;;;;;;;34.40;15.18;;;;;;;-0.99;100.00;101185.63;5065598;28;20036;-92
2022/01/08 06:50:40;;;;;;;29.77;14.93;;;;;;;-0.90;100.00;101190.97;5056534;28;20021;-92
2022/01/08 06:53:05;;;;;;;30.63;15.48;;;;;;;-0.87;100.00;101185.97;5063162;28;20035;-92
2022/01/08 06:55:30;;;;;;;32.63;15.35;;;;;;;-0.87;100.00;101176.66;5067383;28;20043;-92
2022/01/08 06:57:56;;;;;;;30.80;15.68;;;;;;;-0.87;100.00;101179.19;5067034;28;20107;-92
2022/01/08 07:00:22;;;;;;;30.27;15.70;;;;;;;-0.85;100.00;101186.88;5065316;28;20024;-89
2022/01/08 07:02:47;;;;;;;33.10;16.00;;;;;;;-0.86;100.00;101185.13;5067227;28;20058;-91
2022/01/08 07:05:13;;;;;;;31.20;15.90;;;;;;;-0.87;100.00;101181.72;5069237;28;20029;-90
2022/01/08 07:07:38;;;;;;;38.03;15.52;;;;;;;-0.86;100.00;101182.59;5065219;28;20042;-90
2022/01/08 07:10:04;;;;;;;28.30;14.65;;;;;;;-0.85;100.00;101190.28;5067082;28;20032;-89
2022/01/08 07:12:30;;;;;;;33.95;15.15;;;;;;;-0.88;100.00;101185.09;5068723;28;20118;-89
2022/01/08 07:14:56;;;;;;;32.20;14.52;;;;;;;-0.90;100.00;101193.53;5068628;28;20086;-90
2022/01/08 07:17:21;;;;;;;31.50;14.63;;;;;;;-0.90;100.00;101193.53;5064848;28;20033;-89
2022/01/08 07:19:46;;;;;;;33.35;14.68;;;;;;;-0.90;100.00;101188.44;5067933;28;20055;-89
2022/01/08 07:22:11;;;;;;;29.15;14.35;;;;;;;-0.93;100.00;101193.41;5063552;28;20459;-89
2022/01/08 07:24:37;;;;;;;31.05;14.63;;;;;;;-0.95;100.00;101195.91;5069364;28;20334;-89
2022/01/08 07:27:02;;;;;;;32.63;14.52;;;;;;;-0.99;100.00;101183.94;5051729;28;20035;-89
2022/01/08 07:29:28;;;;;;;30.00;13.43;;;;;;;-1.00;100.00;101179.66;5068236;28;20120;-89
2022/01/08 07:31:53;;;;;;;29.20;14.88;;;;;;;-1.02;100.00;101182.97;5064757;28;20024;-87
2022/01/08 07:34:18;;;;;;;34.92;13.98;;;;;;;-1.03;100.00;101189.78;5068780;28;20340;-90
2022/01/08 07:36:44;;;;;;;28.08;13.73;;;;;;;-1.03;100.00;101184.69;5070751;28;20035;-91
2022/01/08 07:39:09;;;;;;;26.98;13.77;;;;;;;-1.05;100.00;101181.22;5083923;28;20419;-91
2022/01/08 07:41:34;;;;;;;32.33;14.57;;;;;;;-1.05;100.00;101173.59;5068868;28;20355;-89
2022/01/08 07:43:59;;;;;;;32.67;13.90;;;;;;;-1.05;100.00;101178.69;5069028;28;20032;-90
2022/01/08 07:46:25;;;;;;;31.42;13.95;;;;;;;-1.03;100.00;101184.69;5065546;28;20085;-92
2022/01/08 07:48:50;;;;;;;26.38;13.45;;;;;;;-1.03;100.00;101184.69;5062773;28;20078;-92
2022/01/08 07:51:15;;;;;;;29.67;14.57;;;;;;;-1.02;100.00;101182.97;5058611;28;20025;-92
2022/01/08 07:53:41;;;;;;;31.60;13.73;;;;;;;-0.99;100.00;101183.94;5057566;28;20471;-91
2022/01/08 07:56:06;;;;;;;29.08;13.30;;;;;;;-0.95;100.00;101180.66;5067992;28;20016;-91
2022/01/08 07:58:31;;;;;;;33.08;14.50;;;;;;;-0.87;100.00;101171.56;5050944;28;20120;-92
2022/01/08 08:00:57;;;;;;;29.45;13.50;;;;;;;-0.82;100.00;101164.91;5064816;28;20190;-92
2022/01/08 08:03:23;;;;;;;34.90;14.20;;;;;;;-0.78;100.00;101163.31;5053841;28;20031;-92
2022/01/08 08:05:48;;;;;;;34.15;14.60;;;;;;;-0.75;100.00;101171.03;5071430;28;20158;-92
2022/01/08 08:08:18;;;;;;;32.95;13.70;;;;;;;-0.67;100.00;101168.69;5070525;28;20025;-91
2022/01/08 08:10:47;;;;;;;33.45;13.90;;;;;;;-0.65;100.00;101161.97;5069901;28;20107;-92
2022/01/08 08:13:13;;;;;;;35.72;14.10;;;;;;;-0.58;100.00;101162.16;5068970;28;20032;-91
2022/01/08 08:15:38;;;;;;;36.42;13.48;;;;;;;-0.53;100.00;101160.59;5071919;28;20036;-91
2022/01/08 08:18:04;;;;;;;29.48;13.48;;;;;;;-0.41;100.00;101170.25;5070132;28;20032;-91
2022/01/08 08:20:29;;;;;;;32.05;13.07;;;;;;;-0.38;100.00;101157.59;5069625;28;20016;-91
2022/01/08 08:22:54;;;;;;;26.88;11.82;;;;;;;-0.27;100.00;101158.72;5065078;28;20128;-91
2022/01/08 08:25:20;;;;;;;30.77;12.43;;;;;;;-0.18;100.00;101158.09;5071795;28;20028;-92
2022/01/08 08:27:45;;;;;;;30.95;12.05;;;;;;;-0.12;100.00;101148.03;5071380;28;20028;-91
2022/01/08 08:30:11;;;;;;;28.38;12.73;;;;;;;-0.07;100.00;101157.50;5064262;28;20025;-91
2022/01/08 08:32:37;;;;;;;28.70;12.13;;;;;;;-0.04;100.00;101151.63;5074364;28;20491;-88
2022/01/08 08:35:03;;;;;;;31.13;11.65;;;;;;;0.01;100.00;101157.69;5063352;28;20036;-91
2022/01/08 08:37:28;;;;;;;26.90;11.45;;;;;;;0.04;100.00;101151.81;5060561;28;20025;-90
2022/01/08 08:39:53;;;;;;;26.73;11.25;;;;;;;0.08;100.00;101153.59;5057589;28;20125;-91
2022/01/08 08:42:18;;;;;;;24.98;11.50;;;;;;;0.11;100.00;101133.31;5072249;28;20043;-91
2022/01/08 08:44:44;;;;;;;29.08;11.45;;;;;;;0.13;100.00;101127.44;5071802;28;20055;-94
2022/01/08 08:47:10;;;;;;;30.88;11.63;;;;;;;0.17;100.00;101141.09;5072512;28;20032;-92
2022/01/08 08:49:35;;;;;;;29.80;11.57;;;;;;;0.22;100.00;101139.50;5069341;28;20028;-92
2022/01/08 08:52:01;;;;;;;27.73;11.82;;;;;;;0.23;100.00;101131.91;5061701;28;20028;-92
2022/01/08 08:54:26;;;;;;;29.83;11.57;;;;;;;0.28;100.00;101137.09;5069416;28;20214;-88
2022/01/08 08:56:51;;;;;;;34.97;12.30;;;;;;;0.30;100.00;101136.31;5061756;28;20029;-88
2022/01/08 08:59:17;;;;;;;28.98;11.68;;;;;;;0.34;100.00;101137.25;5065909;28;20401;-90
2022/01/08 09:01:42;;;;;;;29.58;11.70;;;;;;;0.39;100.00;101138.22;5064722;28;20033;-87
2022/01/08 09:04:07;;;;;;;31.42;11.80;;;;;;;0.40;100.00;101129.75;5072143;28;20366;-91
2022/01/08 09:06:33;;;;;;;35.38;12.02;;;;;;;0.44;100.00;101135.75;5070689;28;20521;-90
2022/01/08 09:08:59;;;;;;;36.50;12.70;;;;;;;0.54;100.00;101137.69;5060314;28;20116;-86
2022/01/08 09:11:26;;;;;;;29.83;12.18;;;;;;;0.57;100.00;101146.25;5057041;28;20508;-88
2022/01/08 09:13:51;;;;;;;30.65;12.52;;;;;;;0.60;100.00;101132.72;5051515;28;20099;-87
2022/01/08 09:16:17;;;;;;;31.48;12.57;;;;;;;0.61;100.00;101134.44;5046856;28;20218;-88
2022/01/08 09:18:43;;;;;;;33.55;12.85;;;;;;;0.63;100.00;101131.06;5064004;28;20441;-87
2022/01/08 09:21:08;;;;;;;30.27;12.98;;;;;;;0.69;100.00;101125.22;5070348;28;20028;-86
2022/01/08 09:23:34;;;;;;;36.97;13.20;;;;;;;0.74;100.00;101131.31;5071035;28;20024;-86
2022/01/08 09:26:00;;;;;;;34.92;13.43;;;;;;;0.78;100.00;101122.88;5068078;28;20407;-87
2022/01/08 09:28:27;;;;;;;41.88;14.10;;;;;;;0.83;100.00;101123.81;5061579;28;20119;-88
2022/01/08 09:30:54;;;;;;;39.35;13.93;;;;;;;0.91;100.00;101122.28;5066815;28;20044;-89
2022/01/08 09:33:20;;;;;;;42.83;14.20;;;;;;;0.95;100.00;101119.00;5060903;28;20033;-88
2022/01/08 09:35:45;;;;;;;41.45;13.75;;;;;;;1.01;100.00;101128.44;5054529;28;20076;-88
2022/01/08 09:38:10;;;;;;;39.25;15.32;;;;;;;1.05;100.00;101109.81;5068916;28;20371;-88
2022/01/08 09:40:36;;;;;;;44.20;15.13;;;;;;;1.12;100.00;101109.94;5063357;28;20401;-89
2022/01/08 09:43:02;;;;;;;46.15;15.23;;;;;;;1.21;100.00;101114.38;5062001;28;20071;-89
2022/01/08 09:45:28;;;;;;;45.03;15.38;;;;;;;1.24;100.00;101103.34;5064979;28;20478;-88
2022/01/08 09:47:53;;;;;;;39.45;16.10;;;;;;;1.33;100.00;101093.31;5063984;28;20039;-88
2022/01/08 09:50:18;;;;;;;45.58;16.55;;;;;;;1.37;100.00;101084.84;5067619;28;20028;-88
2022/01/08 09:52:44;;;;;;;39.05;14.50;;;;;;;1.43;100.00;101087.53;5068575;28;20028;-88
2022/01/08 09:55:10;;;;;;;42.20;15.05;;;;;;;1.43;100.00;101069.66;5070438;28;20085;-89
2022/01/08 09:57:35;;;;;;;45.65;15.77;;;;;;;1.51;100.00;101056.16;5054133;28;20028;-88
2022/01/08 10:00:09;;;;;;;44.28;16.27;;;;;;;1.62;100.00;101056.34;5070600;28;20367;-88
2022/01/08 10:02:34;;;;;;;48.95;17.20;;;;;;;1.71;100.00;101058.16;5057069;28;20021;-88
2022/01/08 10:05:08;;;;;;;43.20;16.25;;;;;;;1.74;100.00;101051.44;5068314;28;20462;-89
2022/01/08 10:07:34;;;;;;;43.53;17.42;;;;;;;1.77;100.00;101043.81;5069313;28;20475;-88
2022/01/08 10:10:02;;;;;;;40.95;15.82;;;;;;;1.83;100.00;101045.59;5065265;28;20035;-88
2022/01/08 10:12:46;;;;;;;44.58;16.02;;;;;;;1.88;100.00;101031.19;5056157;28;20035;-89
2022/01/08 10:17:58;;;;;;;39.90;15.15;;;;;;;1.87;100.00;101021.78;5066676;28;20031;-88
2022/01/08 10:20:29;;;;;;;44.90;15.30;;;;;;;1.90;100.00;101001.41;5061163;28;20341;-88
2022/01/08 10:23:08;;;;;;;52.08;15.18;;;;;;;2.03;100.00;100999.88;5061339;28;20028;-89
2022/01/08 10:25:33;;;;;;;46.08;15.80;;;;;;;2.16;100.00;100987.25;5068914;28;20067;-87
2022/01/08 10:27:59;;;;;;;44.15;14.95;;;;;;;2.24;100.00;100984.81;5055057;28;20025;-87
2022/01/08 10:30:26;;;;;;;43.45;15.30;;;;;;;2.23;100.00;100973.72;5056345;28;20082;-86
2022/01/08 10:32:59;;;;;;;41.92;15.65;;;;;;;2.30;100.00;100961.88;5064525;28;20395;-89
2022/01/08 10:35:48;;;;;;;42.67;15.45;;;;;;;2.31;100.00;100964.44;5065419;28;20033;-88
2022/01/08 10:38:13;;;;;;;41.70;14.23;;;;;;;2.26;100.00;100955.84;5067842;28;20024;-88
2022/01/08 10:40:39;;;;;;;43.40;14.50;;;;;;;2.28;100.00;100966.94;5055186;28;20136;-88
2022/01/08 10:43:26;;;;;;;38.08;14.57;;;;;;;2.29;100.00;100953.34;5049961;28;20065;-88
2022/01/08 10:45:53;;;;;;;41.78;14.70;;;;;;;2.32;100.00;100944.84;5067929;28;20039;-88
2022/01/08 10:48:30;;;;;;;36.97;13.60;;;;;;;2.32;100.00;100938.00;5069588;28;20115;-89
2022/01/08 10:51:11;;;;;;;46.30;13.38;;;;;;;2.39;100.00;100938.94;5068885;28;20020;-89
2022/01/08 10:53:51;;;;;;;46.72;14.57;;;;;;;2.38;100.00;100930.44;5063526;28;20025;-92
2022/01/08 10:56:29;;;;;;;40.03;13.18;;;;;;;2.42;100.00;100922.75;5069180;28;20510;-90
2022/01/08 10:59:01;;;;;;;36.83;13.75;;;;;;;2.45;100.00;100922.81;5057632;28;20083;-93
2022/01/08 11:01:39;;;;;;;39.58;12.82;;;;;;;2.53;100.00;100909.25;5049272;28;20048;-89
2022/01/08 11:04:11;;;;;;;39.70;13.63;;;;;;;2.60;100.00;100907.59;5066272;28;20017;-90
2022/01/08 11:06:51;;;;;;;38.70;13.43;;;;;;;2.68;100.00;100891.47;5050929;28;20037;-91
2022/01/08 11:09:16;;;;;;;36.22;12.75;;;;;;;2.71;100.00;100886.41;5065780;28;20170;-93
2022/01/08 11:11:43;;;;;;;34.88;12.63;;;;;;;2.78;100.00;100882.19;5052064;28;20013;-87
2022/01/08 11:14:21;;;;;;;32.65;11.50;;;;;;;2.78;100.00;100877.94;5069073;28;20020;-92
2022/01/08 11:16:50;;;;;;;38.83;12.35;;;;;;;2.86;100.00;100866.91;5068651;28;20040;-88
2022/01/08 11:19:17;;;;;;;35.38;12.52;;;;;;;2.90;100.00;100872.03;5056536;28;20024;-89
2022/01/08 11:21:42;;;;;;;35.90;13.55;;;;;;;2.95;100.00;100867.81;5060843;28;20492;-90